Red Bird, Missouri
Current Conditions -  °F | °C
As of 1:53 PM on Thursday 30 Oct 2014 (Local Time) from KVIH Reporting Station
Overcast Overcast  
Wind Chill: 52°   Ceiling: 8000
Heat Index: 52°   Visibility: 10mi
Dew Point: 45°   Wind: 12mph
Humidity: 77%   Direction: 160°SSE
Pressure: 30"   Gusts: NA
Location:  38.3239°N, 91.6268°W
Report Text: KVIH 301853Z AUTO 16010KT 10SM FEW065 OVC080 11/07 A3000 RMK AO2 RAE43 SLP162 P0001 T01110072
Loading
Personal Weather Stations






























Interactive Weather Map
Tropical Storm Tracking
New forecast layout! Learn more

10-Day Weather Forecast

Advertisements
Track Severe Weather on mobile